Aeroporto :
LOGIN :

Iscrizione | Disclaimer

   EN    FR    IT 

 










Sommario :    VFR   VFR Marginale   IFR   IFR Intensivo   IFR Molto Intensivo
Visibilità : 
Base nubi : 
>= 8 km
>= 3000ft
5 / 8 km
1000 / 3000 ft
1500m / 5 km
500 / 1000 ft
800 / 1500m
200 / 500 ft
< 800m
< 200 ft
Simboli :   Temporali  Nebbia  Neve Forte  Precipitazioni Forti  Vento > 20 kt
SIGMETs :   Varie  Temporali  Ghiacco  Turbolenza  Onda orograficha  Ceneri Vulcaniche






- Altitudine del aeroporto : 102 ft
- Codice IATA : CNG


LFBG - Cognac

ULTIMO METAR :
  • 211500Z AUTO 02016KT CAVOK 14/M00 Q1023

METARs OBSOLETI :
  • 211430Z AUTO 02015KT CAVOK 13/01 Q1023
  • 211400Z AUTO 03014KT 360V060 9999 BKN049 BKN240 13/00 Q1023
  • 211330Z AUTO 03014KT 9999 OVC048 12/01 Q1023
  • 211300Z AUTO 03014KT 9999 OVC048 12/01 Q1024
  • 211230Z AUTO 03017KT 9999 FEW019 BKN048 13/01 Q1024
  • 211200Z AUTO 03015G26KT 360V070 9999 BKN047 12/01 Q1024
  • 211130Z AUTO 04016KT 9999 BKN046 13/02 Q1024
  • 211100Z AUTO 03015KT 360V070 9999 SCT046 12/01 Q1024
  • 211030Z AUTO 03015KT CAVOK 12/01 Q1024

Previsioni scadute.



MetMap, La meteo Aeronautica in un colpo d'occhio ! - Copyright ORBIFLY Dicembre 2007 - Disclaimer

ORBIFLY MET'MAP TEAM :

Programmazione e sviluppo : Alexandra Zaïnal
Concezione : Baudouin d'Aumeries
Supporto tecnico e logistico : Manuel Goepfert
Aiuto : Marc-Olivier Méhu
Aiuto per la traduzione : Arnaldo La Scala




FONTI E CREDITI :

   NOAA